sensor_id;sensor_type;location;lat;lon;timestamp;P1;durP1;ratioP1;P2;durP2;ratioP2
51836;SDS011;38941;53.254;6.600;2024-02-14T00:01:59;8.23;;;3.90;;
51836;SDS011;38941;53.254;6.600;2024-02-14T00:04:00;8.18;;;4.10;;
51836;SDS011;38941;53.254;6.600;2024-02-14T00:06:00;7.55;;;4.05;;
51836;SDS011;38941;53.254;6.600;2024-02-14T00:08:02;10.90;;;3.80;;
51836;SDS011;38941;53.254;6.600;2024-02-14T00:10:03;9.73;;;4.75;;
51836;SDS011;38941;53.254;6.600;2024-02-14T00:12:05;7.88;;;3.85;;
51836;SDS011;38941;53.254;6.600;2024-02-14T00:14:07;11.93;;;3.95;;
51836;SDS011;38941;53.254;6.600;2024-02-14T00:16:08;9.45;;;4.53;;
51836;SDS011;38941;53.254;6.600;2024-02-14T00:18:10;7.10;;;3.80;;
51836;SDS011;38941;53.254;6.600;2024-02-14T00:20:11;9.55;;;4.72;;
51836;SDS011;38941;53.254;6.600;2024-02-14T00:22:13;11.05;;;5.05;;
51836;SDS011;38941;53.254;6.600;2024-02-14T00:24:13;6.90;;;4.57;;
51836;SDS011;38941;53.254;6.600;2024-02-14T00:26:17;9.85;;;4.80;;
51836;SDS011;38941;53.254;6.600;2024-02-14T00:28:18;11.35;;;4.75;;
51836;SDS011;38941;53.254;6.600;2024-02-14T00:30:19;16.73;;;5.38;;
51836;SDS011;38941;53.254;6.600;2024-02-14T00:32:23;12.75;;;4.93;;
51836;SDS011;38941;53.254;6.600;2024-02-14T00:34:23;12.32;;;5.28;;
51836;SDS011;38941;53.254;6.600;2024-02-14T00:36:25;14.05;;;5.30;;
51836;SDS011;38941;53.254;6.600;2024-02-14T00:38:26;10.25;;;5.53;;
51836;SDS011;38941;53.254;6.600;2024-02-14T00:40:27;8.15;;;5.03;;
51836;SDS011;38941;53.254;6.600;2024-02-14T00:42:28;10.15;;;5.60;;
51836;SDS011;38941;53.254;6.600;2024-02-14T00:44:29;10.25;;;5.50;;
51836;SDS011;38941;53.254;6.600;2024-02-14T00:46:29;12.07;;;6.35;;
51836;SDS011;38941;53.254;6.600;2024-02-14T00:48:31;11.30;;;5.38;;
51836;SDS011;38941;53.254;6.600;2024-02-14T00:50:32;11.13;;;6.07;;
51836;SDS011;38941;53.254;6.600;2024-02-14T00:52:38;10.15;;;5.35;;
51836;SDS011;38941;53.254;6.600;2024-02-14T00:54:39;9.85;;;5.53;;
51836;SDS011;38941;53.254;6.600;2024-02-14T00:56:41;9.40;;;4.90;;
51836;SDS011;38941;53.254;6.600;2024-02-14T00:58:41;16.63;;;5.75;;
51836;SDS011;38941;53.254;6.600;2024-02-14T01:00:42;11.93;;;6.00;;
51836;SDS011;38941;53.254;6.600;2024-02-14T01:02:43;9.20;;;5.70;;
51836;SDS011;38941;53.254;6.600;2024-02-14T01:04:44;10.23;;;5.55;;
51836;SDS011;38941;53.254;6.600;2024-02-14T01:06:46;12.48;;;5.50;;
51836;SDS011;38941;53.254;6.600;2024-02-14T01:08:48;9.45;;;4.90;;
51836;SDS011;38941;53.254;6.600;2024-02-14T01:10:48;8.40;;;5.20;;
51836;SDS011;38941;53.254;6.600;2024-02-14T01:12:52;12.23;;;5.13;;
51836;SDS011;38941;53.254;6.600;2024-02-14T01:14:55;12.30;;;5.78;;
51836;SDS011;38941;53.254;6.600;2024-02-14T01:16:56;10.15;;;5.63;;
51836;SDS011;38941;53.254;6.600;2024-02-14T01:18:58;11.27;;;5.20;;
51836;SDS011;38941;53.254;6.600;2024-02-14T01:21:00;9.63;;;5.07;;
51836;SDS011;38941;53.254;6.600;2024-02-14T01:23:01;9.93;;;5.10;;
51836;SDS011;38941;53.254;6.600;2024-02-14T01:25:03;7.43;;;5.03;;
51836;SDS011;38941;53.254;6.600;2024-02-14T01:27:04;7.95;;;4.93;;
51836;SDS011;38941;53.254;6.600;2024-02-14T01:29:05;7.53;;;5.22;;
51836;SDS011;38941;53.254;6.600;2024-02-14T01:31:06;8.57;;;5.38;;
51836;SDS011;38941;53.254;6.600;2024-02-14T01:33:11;7.97;;;5.07;;
51836;SDS011;38941;53.254;6.600;2024-02-14T01:35:12;10.00;;;5.68;;
51836;SDS011;38941;53.254;6.600;2024-02-14T01:37:13;7.40;;;4.97;;
51836;SDS011;38941;53.254;6.600;2024-02-14T01:39:15;10.75;;;5.20;;
51836;SDS011;38941;53.254;6.600;2024-02-14T01:41:17;8.35;;;5.07;;
51836;SDS011;38941;53.254;6.600;2024-02-14T01:43:19;8.82;;;5.32;;
51836;SDS011;38941;53.254;6.600;2024-02-14T01:45:21;6.65;;;4.80;;
51836;SDS011;38941;53.254;6.600;2024-02-14T01:47:22;6.85;;;4.72;;
51836;SDS011;38941;53.254;6.600;2024-02-14T01:49:22;9.40;;;5.03;;
51836;SDS011;38941;53.254;6.600;2024-02-14T01:51:23;9.80;;;4.28;;
51836;SDS011;38941;53.254;6.600;2024-02-14T01:53:25;8.70;;;4.95;;
51836;SDS011;38941;53.254;6.600;2024-02-14T01:55:31;7.97;;;4.68;;
51836;SDS011;38941;53.254;6.600;2024-02-14T01:57:32;7.40;;;4.53;;
51836;SDS011;38941;53.254;6.600;2024-02-14T01:59:34;7.40;;;4.60;;
51836;SDS011;38941;53.254;6.600;2024-02-14T02:01:36;7.18;;;4.60;;
51836;SDS011;38941;53.254;6.600;2024-02-14T02:03:37;6.82;;;4.25;;
51836;SDS011;38941;53.254;6.600;2024-02-14T02:05:38;6.85;;;4.15;;
51836;SDS011;38941;53.254;6.600;2024-02-14T02:07:39;6.95;;;3.97;;
51836;SDS011;38941;53.254;6.600;2024-02-14T02:09:42;8.43;;;4.05;;
51836;SDS011;38941;53.254;6.600;2024-02-14T02:11:47;6.30;;;3.90;;
51836;SDS011;38941;53.254;6.600;2024-02-14T02:13:56;6.70;;;3.67;;
51836;SDS011;38941;53.254;6.600;2024-02-14T02:15:57;5.35;;;3.30;;
51836;SDS011;38941;53.254;6.600;2024-02-14T02:17:59;5.55;;;3.72;;
51836;SDS011;38941;53.254;6.600;2024-02-14T02:20:01;5.53;;;3.78;;
51836;SDS011;38941;53.254;6.600;2024-02-14T02:22:02;6.65;;;3.80;;
51836;SDS011;38941;53.254;6.600;2024-02-14T02:24:05;5.10;;;3.35;;
51836;SDS011;38941;53.254;6.600;2024-02-14T02:26:08;6.25;;;3.35;;
51836;SDS011;38941;53.254;6.600;2024-02-14T02:28:12;5.90;;;3.47;;
51836;SDS011;38941;53.254;6.600;2024-02-14T02:30:14;6.38;;;3.42;;
51836;SDS011;38941;53.254;6.600;2024-02-14T02:32:14;5.47;;;3.20;;
51836;SDS011;38941;53.254;6.600;2024-02-14T02:34:16;4.97;;;3.28;;
51836;SDS011;38941;53.254;6.600;2024-02-14T02:36:18;5.15;;;3.05;;
51836;SDS011;38941;53.254;6.600;2024-02-14T02:38:19;4.80;;;2.65;;
51836;SDS011;38941;53.254;6.600;2024-02-14T02:40:22;4.05;;;2.83;;
51836;SDS011;38941;53.254;6.600;2024-02-14T02:42:24;4.50;;;3.10;;
51836;SDS011;38941;53.254;6.600;2024-02-14T02:44:25;6.22;;;3.60;;
51836;SDS011;38941;53.254;6.600;2024-02-14T02:46:27;4.70;;;3.25;;
51836;SDS011;38941;53.254;6.600;2024-02-14T02:48:28;5.10;;;3.03;;
51836;SDS011;38941;53.254;6.600;2024-02-14T02:50:29;5.57;;;3.10;;
51836;SDS011;38941;53.254;6.600;2024-02-14T02:52:30;7.35;;;3.25;;
51836;SDS011;38941;53.254;6.600;2024-02-14T02:54:31;4.70;;;3.03;;
51836;SDS011;38941;53.254;6.600;2024-02-14T02:56:31;4.50;;;3.28;;
51836;SDS011;38941;53.254;6.600;2024-02-14T02:58:33;4.10;;;2.75;;
51836;SDS011;38941;53.254;6.600;2024-02-14T03:00:35;5.25;;;3.03;;
51836;SDS011;38941;53.254;6.600;2024-02-14T03:02:36;6.60;;;3.03;;
51836;SDS011;38941;53.254;6.600;2024-02-14T03:04:41;5.32;;;3.05;;
51836;SDS011;38941;53.254;6.600;2024-02-14T03:06:43;4.10;;;2.95;;
51836;SDS011;38941;53.254;6.600;2024-02-14T03:08:45;4.40;;;2.90;;
51836;SDS011;38941;53.254;6.600;2024-02-14T03:10:45;4.35;;;2.80;;
51836;SDS011;38941;53.254;6.600;2024-02-14T03:12:49;5.00;;;3.10;;
51836;SDS011;38941;53.254;6.600;2024-02-14T03:14:49;4.18;;;2.70;;
51836;SDS011;38941;53.254;6.600;2024-02-14T03:16:50;6.72;;;3.40;;
51836;SDS011;38941;53.254;6.600;2024-02-14T03:18:51;3.42;;;2.60;;
51836;SDS011;38941;53.254;6.600;2024-02-14T03:20:53;4.00;;;2.50;;
51836;SDS011;38941;53.254;6.600;2024-02-14T03:22:54;4.35;;;2.60;;
51836;SDS011;38941;53.254;6.600;2024-02-14T03:24:55;6.25;;;3.10;;
51836;SDS011;38941;53.254;6.600;2024-02-14T03:26:55;4.88;;;2.90;;
51836;SDS011;38941;53.254;6.600;2024-02-14T03:28:56;4.45;;;2.65;;
51836;SDS011;38941;53.254;6.600;2024-02-14T03:30:56;4.20;;;2.60;;
51836;SDS011;38941;53.254;6.600;2024-02-14T03:32:58;3.78;;;2.63;;
51836;SDS011;38941;53.254;6.600;2024-02-14T03:34:59;4.72;;;2.80;;
51836;SDS011;38941;53.254;6.600;2024-02-14T03:37:03;6.15;;;2.88;;
51836;SDS011;38941;53.254;6.600;2024-02-14T03:39:07;3.17;;;2.65;;
51836;SDS011;38941;53.254;6.600;2024-02-14T03:41:08;3.35;;;2.08;;
51836;SDS011;38941;53.254;6.600;2024-02-14T03:43:10;3.58;;;2.20;;
51836;SDS011;38941;53.254;6.600;2024-02-14T03:45:13;3.13;;;2.17;;
51836;SDS011;38941;53.254;6.600;2024-02-14T03:47:14;6.75;;;2.60;;
51836;SDS011;38941;53.254;6.600;2024-02-14T03:49:14;5.18;;;2.50;;
51836;SDS011;38941;53.254;6.600;2024-02-14T03:51:16;4.40;;;2.15;;
51836;SDS011;38941;53.254;6.600;2024-02-14T03:53:17;4.28;;;2.40;;
51836;SDS011;38941;53.254;6.600;2024-02-14T03:55:18;4.68;;;2.63;;
51836;SDS011;38941;53.254;6.600;2024-02-14T03:57:19;2.92;;;2.17;;
51836;SDS011;38941;53.254;6.600;2024-02-14T03:59:20;3.50;;;2.08;;
51836;SDS011;38941;53.254;6.600;2024-02-14T04:01:25;5.75;;;2.30;;
51836;SDS011;38941;53.254;6.600;2024-02-14T04:03:28;5.47;;;2.67;;
51836;SDS011;38941;53.254;6.600;2024-02-14T04:05:29;3.80;;;2.30;;
51836;SDS011;38941;53.254;6.600;2024-02-14T04:07:29;3.45;;;2.17;;
51836;SDS011;38941;53.254;6.600;2024-02-14T04:09:32;3.47;;;2.28;;
51836;SDS011;38941;53.254;6.600;2024-02-14T04:11:33;4.07;;;2.40;;
51836;SDS011;38941;53.254;6.600;2024-02-14T04:13:33;4.60;;;2.25;;
51836;SDS011;38941;53.254;6.600;2024-02-14T04:15:34;4.28;;;2.42;;
51836;SDS011;38941;53.254;6.600;2024-02-14T04:17:35;4.97;;;2.95;;
51836;SDS011;38941;53.254;6.600;2024-02-14T04:19:35;4.28;;;2.42;;
51836;SDS011;38941;53.254;6.600;2024-02-14T04:21:37;3.85;;;2.20;;
51836;SDS011;38941;53.254;6.600;2024-02-14T04:23:38;5.60;;;3.17;;
51836;SDS011;38941;53.254;6.600;2024-02-14T04:25:40;4.18;;;2.60;;
51836;SDS011;38941;53.254;6.600;2024-02-14T04:27:41;4.30;;;2.78;;
51836;SDS011;38941;53.254;6.600;2024-02-14T04:29:46;4.32;;;2.80;;
51836;SDS011;38941;53.254;6.600;2024-02-14T04:31:47;4.85;;;3.03;;
51836;SDS011;38941;53.254;6.600;2024-02-14T04:33:49;5.88;;;2.83;;
51836;SDS011;38941;53.254;6.600;2024-02-14T04:35:52;4.68;;;3.10;;
51836;SDS011;38941;53.254;6.600;2024-02-14T04:37:52;6.47;;;3.45;;
51836;SDS011;38941;53.254;6.600;2024-02-14T04:39:53;5.85;;;3.33;;
51836;SDS011;38941;53.254;6.600;2024-02-14T04:41:54;5.53;;;3.17;;
51836;SDS011;38941;53.254;6.600;2024-02-14T04:43:54;6.47;;;3.35;;
51836;SDS011;38941;53.254;6.600;2024-02-14T04:45:55;5.95;;;3.40;;
51836;SDS011;38941;53.254;6.600;2024-02-14T04:47:56;6.10;;;3.47;;
51836;SDS011;38941;53.254;6.600;2024-02-14T04:49:57;7.15;;;3.90;;
51836;SDS011;38941;53.254;6.600;2024-02-14T04:51:58;5.53;;;3.80;;
51836;SDS011;38941;53.254;6.600;2024-02-14T04:53:59;7.00;;;3.78;;
51836;SDS011;38941;53.254;6.600;2024-02-14T04:56:00;8.00;;;3.63;;
51836;SDS011;38941;53.254;6.600;2024-02-14T04:58:00;9.45;;;3.53;;
51836;SDS011;38941;53.254;6.600;2024-02-14T05:00:01;7.05;;;3.80;;
51836;SDS011;38941;53.254;6.600;2024-02-14T05:02:04;6.15;;;3.35;;
51836;SDS011;38941;53.254;6.600;2024-02-14T05:04:05;5.80;;;3.25;;
51836;SDS011;38941;53.254;6.600;2024-02-14T05:06:08;5.00;;;2.92;;
51836;SDS011;38941;53.254;6.600;2024-02-14T05:08:08;6.47;;;3.15;;
51836;SDS011;38941;53.254;6.600;2024-02-14T05:10:09;5.18;;;3.20;;
51836;SDS011;38941;53.254;6.600;2024-02-14T05:12:10;6.65;;;3.65;;
51836;SDS011;38941;53.254;6.600;2024-02-14T05:14:11;5.05;;;3.28;;
51836;SDS011;38941;53.254;6.600;2024-02-14T05:16:12;5.53;;;3.25;;
51836;SDS011;38941;53.254;6.600;2024-02-14T05:18:13;5.75;;;3.15;;
51836;SDS011;38941;53.254;6.600;2024-02-14T05:20:15;7.43;;;3.67;;
51836;SDS011;38941;53.254;6.600;2024-02-14T05:22:16;5.25;;;3.38;;
51836;SDS011;38941;53.254;6.600;2024-02-14T05:24:17;7.28;;;3.50;;
51836;SDS011;38941;53.254;6.600;2024-02-14T05:26:17;6.03;;;3.25;;
51836;SDS011;38941;53.254;6.600;2024-02-14T05:28:18;7.57;;;3.55;;
51836;SDS011;38941;53.254;6.600;2024-02-14T05:30:18;7.18;;;3.83;;
51836;SDS011;38941;53.254;6.600;2024-02-14T05:32:20;7.28;;;3.58;;
51836;SDS011;38941;53.254;6.600;2024-02-14T05:34:20;6.30;;;3.05;;
51836;SDS011;38941;53.254;6.600;2024-02-14T05:36:21;5.57;;;3.45;;
51836;SDS011;38941;53.254;6.600;2024-02-14T05:38:25;9.18;;;3.70;;
51836;SDS011;38941;53.254;6.600;2024-02-14T05:40:26;5.47;;;3.38;;
51836;SDS011;38941;53.254;6.600;2024-02-14T05:42:27;6.03;;;3.38;;
51836;SDS011;38941;53.254;6.600;2024-02-14T05:44:28;4.82;;;2.95;;
51836;SDS011;38941;53.254;6.600;2024-02-14T05:46:30;9.15;;;3.50;;
51836;SDS011;38941;53.254;6.600;2024-02-14T05:48:31;11.50;;;4.05;;
51836;SDS011;38941;53.254;6.600;2024-02-14T05:50:32;5.78;;;3.33;;
51836;SDS011;38941;53.254;6.600;2024-02-14T05:52:33;7.18;;;3.58;;
51836;SDS011;38941;53.254;6.600;2024-02-14T05:54:35;5.55;;;2.92;;
51836;SDS011;38941;53.254;6.600;2024-02-14T05:56:35;6.85;;;3.10;;
51836;SDS011;38941;53.254;6.600;2024-02-14T05:58:36;6.65;;;3.28;;
51836;SDS011;38941;53.254;6.600;2024-02-14T06:00:37;5.68;;;2.90;;
51836;SDS011;38941;53.254;6.600;2024-02-14T06:02:38;5.20;;;2.80;;
51836;SDS011;38941;53.254;6.600;2024-02-14T06:04:42;5.05;;;2.63;;
51836;SDS011;38941;53.254;6.600;2024-02-14T06:06:43;5.57;;;2.88;;
51836;SDS011;38941;53.254;6.600;2024-02-14T06:08:44;5.93;;;2.95;;
51836;SDS011;38941;53.254;6.600;2024-02-14T06:10:45;4.20;;;2.28;;
51836;SDS011;38941;53.254;6.600;2024-02-14T06:12:45;5.43;;;2.80;;
51836;SDS011;38941;53.254;6.600;2024-02-14T06:14:49;4.90;;;2.53;;
51836;SDS011;38941;53.254;6.600;2024-02-14T06:16:49;5.57;;;2.60;;
51836;SDS011;38941;53.254;6.600;2024-02-14T06:18:50;4.57;;;2.50;;
51836;SDS011;38941;53.254;6.600;2024-02-14T06:20:51;5.97;;;2.45;;
51836;SDS011;38941;53.254;6.600;2024-02-14T06:22:51;4.63;;;2.03;;
51836;SDS011;38941;53.254;6.600;2024-02-14T06:24:52;4.90;;;2.20;;
51836;SDS011;38941;53.254;6.600;2024-02-14T06:26:54;4.93;;;2.30;;
51836;SDS011;38941;53.254;6.600;2024-02-14T06:28:54;6.10;;;2.72;;
51836;SDS011;38941;53.254;6.600;2024-02-14T06:30:56;3.70;;;2.33;;
51836;SDS011;38941;53.254;6.600;2024-02-14T06:32:56;4.45;;;2.70;;
51836;SDS011;38941;53.254;6.600;2024-02-14T06:35:00;5.78;;;2.80;;
51836;SDS011;38941;53.254;6.600;2024-02-14T06:37:02;7.90;;;3.25;;
51836;SDS011;38941;53.254;6.600;2024-02-14T06:39:04;6.20;;;3.00;;
51836;SDS011;38941;53.254;6.600;2024-02-14T06:41:06;9.75;;;2.92;;
51836;SDS011;38941;53.254;6.600;2024-02-14T06:43:07;13.60;;;3.70;;
51836;SDS011;38941;53.254;6.600;2024-02-14T06:45:08;13.65;;;3.25;;
51836;SDS011;38941;53.254;6.600;2024-02-14T06:47:08;15.30;;;4.28;;
51836;SDS011;38941;53.254;6.600;2024-02-14T06:49:09;19.70;;;5.13;;
51836;SDS011;38941;53.254;6.600;2024-02-14T06:51:09;23.15;;;4.88;;
51836;SDS011;38941;53.254;6.600;2024-02-14T06:53:12;18.90;;;4.60;;
51836;SDS011;38941;53.254;6.600;2024-02-14T06:55:13;18.50;;;4.53;;
51836;SDS011;38941;53.254;6.600;2024-02-14T06:57:14;27.35;;;5.40;;
51836;SDS011;38941;53.254;6.600;2024-02-14T06:59:14;26.52;;;5.60;;
51836;SDS011;38941;53.254;6.600;2024-02-14T07:01:15;27.20;;;4.55;;
51836;SDS011;38941;53.254;6.600;2024-02-14T07:03:18;31.65;;;6.45;;
51836;SDS011;38941;53.254;6.600;2024-02-14T07:05:19;30.95;;;5.72;;
51836;SDS011;38941;53.254;6.600;2024-02-14T07:07:20;22.77;;;4.95;;
51836;SDS011;38941;53.254;6.600;2024-02-14T07:09:20;36.22;;;6.90;;
51836;SDS011;38941;53.254;6.600;2024-02-14T07:11:21;28.75;;;5.55;;
51836;SDS011;38941;53.254;6.600;2024-02-14T07:13:23;29.25;;;6.32;;
51836;SDS011;38941;53.254;6.600;2024-02-14T07:15:23;33.63;;;6.03;;
51836;SDS011;38941;53.254;6.600;2024-02-14T07:17:28;28.92;;;7.05;;
51836;SDS011;38941;53.254;6.600;2024-02-14T07:19:28;36.58;;;6.80;;
51836;SDS011;38941;53.254;6.600;2024-02-14T07:21:29;26.75;;;5.25;;
51836;SDS011;38941;53.254;6.600;2024-02-14T07:23:30;20.05;;;4.68;;
51836;SDS011;38941;53.254;6.600;2024-02-14T07:25:30;27.25;;;4.70;;
51836;SDS011;38941;53.254;6.600;2024-02-14T07:27:31;30.75;;;5.18;;
51836;SDS011;38941;53.254;6.600;2024-02-14T07:29:32;42.00;;;6.78;;
51836;SDS011;38941;53.254;6.600;2024-02-14T07:31:33;27.33;;;5.40;;
51836;SDS011;38941;53.254;6.600;2024-02-14T07:33:34;30.98;;;6.65;;
51836;SDS011;38941;53.254;6.600;2024-02-14T07:35:36;40.25;;;7.25;;
51836;SDS011;38941;53.254;6.600;2024-02-14T07:37:36;30.38;;;5.20;;
51836;SDS011;38941;53.254;6.600;2024-02-14T07:39:37;26.55;;;5.43;;
51836;SDS011;38941;53.254;6.600;2024-02-14T07:41:38;42.78;;;6.35;;
51836;SDS011;38941;53.254;6.600;2024-02-14T07:43:39;36.53;;;5.28;;
51836;SDS011;38941;53.254;6.600;2024-02-14T07:45:39;29.50;;;5.07;;
51836;SDS011;38941;53.254;6.600;2024-02-14T07:47:40;35.63;;;6.00;;
51836;SDS011;38941;53.254;6.600;2024-02-14T07:49:41;36.15;;;4.70;;
51836;SDS011;38941;53.254;6.600;2024-02-14T07:51:41;32.97;;;6.07;;
51836;SDS011;38941;53.254;6.600;2024-02-14T07:53:43;27.60;;;5.95;;
51836;SDS011;38941;53.254;6.600;2024-02-14T07:55:44;32.75;;;5.55;;
51836;SDS011;38941;53.254;6.600;2024-02-14T07:57:44;34.40;;;4.93;;
51836;SDS011;38941;53.254;6.600;2024-02-14T07:59:45;35.20;;;5.40;;
51836;SDS011;38941;53.254;6.600;2024-02-14T08:01:46;37.58;;;6.95;;
51836;SDS011;38941;53.254;6.600;2024-02-14T08:03:46;30.08;;;5.10;;
51836;SDS011;38941;53.254;6.600;2024-02-14T08:05:48;47.38;;;4.97;;
51836;SDS011;38941;53.254;6.600;2024-02-14T08:07:49;35.13;;;4.70;;
51836;SDS011;38941;53.254;6.600;2024-02-14T08:09:49;34.65;;;6.40;;
51836;SDS011;38941;53.254;6.600;2024-02-14T08:11:50;36.60;;;5.10;;
51836;SDS011;38941;53.254;6.600;2024-02-14T08:13:53;31.38;;;4.32;;
51836;SDS011;38941;53.254;6.600;2024-02-14T08:15:53;35.47;;;4.80;;
51836;SDS011;38941;53.254;6.600;2024-02-14T08:17:54;38.58;;;6.47;;
51836;SDS011;38941;53.254;6.600;2024-02-14T08:19:57;36.92;;;4.85;;
51836;SDS011;38941;53.254;6.600;2024-02-14T08:21:58;30.08;;;4.97;;
51836;SDS011;38941;53.254;6.600;2024-02-14T08:24:00;30.73;;;4.35;;
51836;SDS011;38941;53.254;6.600;2024-02-14T08:26:01;33.92;;;4.82;;
51836;SDS011;38941;53.254;6.600;2024-02-14T08:28:03;39.17;;;6.32;;
51836;SDS011;38941;53.254;6.600;2024-02-14T08:30:04;32.15;;;5.30;;
51836;SDS011;38941;53.254;6.600;2024-02-14T08:32:06;28.98;;;5.28;;
51836;SDS011;38941;53.254;6.600;2024-02-14T08:34:07;40.63;;;5.57;;
51836;SDS011;38941;53.254;6.600;2024-02-14T08:36:09;40.30;;;5.78;;
51836;SDS011;38941;53.254;6.600;2024-02-14T08:38:10;29.35;;;4.97;;
51836;SDS011;38941;53.254;6.600;2024-02-14T08:40:11;35.75;;;5.55;;
51836;SDS011;38941;53.254;6.600;2024-02-14T08:42:12;29.77;;;5.15;;
51836;SDS011;38941;53.254;6.600;2024-02-14T08:44:13;45.40;;;5.53;;
51836;SDS011;38941;53.254;6.600;2024-02-14T08:46:14;48.05;;;5.90;;
51836;SDS011;38941;53.254;6.600;2024-02-14T08:48:17;34.33;;;5.50;;
51836;SDS011;38941;53.254;6.600;2024-02-14T08:50:20;40.22;;;5.20;;
51836;SDS011;38941;53.254;6.600;2024-02-14T08:52:21;34.67;;;5.75;;
51836;SDS011;38941;53.254;6.600;2024-02-14T08:54:21;31.55;;;6.50;;
51836;SDS011;38941;53.254;6.600;2024-02-14T08:56:23;34.05;;;5.65;;
51836;SDS011;38941;53.254;6.600;2024-02-14T08:58:23;36.75;;;5.35;;
51836;SDS011;38941;53.254;6.600;2024-02-14T09:00:25;37.38;;;7.03;;
51836;SDS011;38941;53.254;6.600;2024-02-14T09:02:26;27.60;;;5.47;;
51836;SDS011;38941;53.254;6.600;2024-02-14T09:04:27;22.83;;;4.80;;
51836;SDS011;38941;53.254;6.600;2024-02-14T09:06:27;41.50;;;5.43;;
51836;SDS011;38941;53.254;6.600;2024-02-14T09:08:28;32.88;;;5.35;;
51836;SDS011;38941;53.254;6.600;2024-02-14T09:10:30;26.58;;;4.93;;
51836;SDS011;38941;53.254;6.600;2024-02-14T09:12:31;27.45;;;5.93;;
51836;SDS011;38941;53.254;6.600;2024-02-14T09:14:32;22.25;;;4.90;;
51836;SDS011;38941;53.254;6.600;2024-02-14T09:16:33;19.92;;;4.60;;
51836;SDS011;38941;53.254;6.600;2024-02-14T09:18:33;23.67;;;5.10;;
51836;SDS011;38941;53.254;6.600;2024-02-14T09:20:36;30.20;;;6.03;;
51836;SDS011;38941;53.254;6.600;2024-02-14T09:22:38;33.70;;;6.53;;
51836;SDS011;38941;53.254;6.600;2024-02-14T09:24:41;31.38;;;5.15;;
51836;SDS011;38941;53.254;6.600;2024-02-14T09:26:41;30.70;;;5.38;;
51836;SDS011;38941;53.254;6.600;2024-02-14T09:28:43;27.27;;;5.05;;
51836;SDS011;38941;53.254;6.600;2024-02-14T09:30:43;24.60;;;5.78;;
51836;SDS011;38941;53.254;6.600;2024-02-14T09:32:45;21.52;;;5.75;;
51836;SDS011;38941;53.254;6.600;2024-02-14T09:34:47;16.75;;;6.55;;
51836;SDS011;38941;53.254;6.600;2024-02-14T09:36:48;24.65;;;6.95;;
51836;SDS011;38941;53.254;6.600;2024-02-14T09:38:50;28.15;;;7.25;;
51836;SDS011;38941;53.254;6.600;2024-02-14T09:40:53;35.08;;;8.88;;
51836;SDS011;38941;53.254;6.600;2024-02-14T09:42:54;31.48;;;8.30;;
51836;SDS011;38941;53.254;6.600;2024-02-14T09:44:58;35.00;;;8.43;;
51836;SDS011;38941;53.254;6.600;2024-02-14T09:47:02;27.33;;;9.27;;
51836;SDS011;38941;53.254;6.600;2024-02-14T09:49:05;34.75;;;9.43;;
51836;SDS011;38941;53.254;6.600;2024-02-14T09:51:07;29.23;;;7.50;;
51836;SDS011;38941;53.254;6.600;2024-02-14T09:53:08;34.80;;;7.88;;
51836;SDS011;38941;53.254;6.600;2024-02-14T09:55:10;26.05;;;8.13;;
51836;SDS011;38941;53.254;6.600;2024-02-14T09:57:12;26.83;;;7.93;;
51836;SDS011;38941;53.254;6.600;2024-02-14T09:59:15;28.40;;;7.20;;
51836;SDS011;38941;53.254;6.600;2024-02-14T10:01:16;26.63;;;6.47;;
51836;SDS011;38941;53.254;6.600;2024-02-14T10:03:18;22.75;;;7.57;;
51836;SDS011;38941;53.254;6.600;2024-02-14T10:05:19;19.55;;;6.50;;
51836;SDS011;38941;53.254;6.600;2024-02-14T10:07:20;25.02;;;7.47;;
51836;SDS011;38941;53.254;6.600;2024-02-14T10:09:21;19.20;;;7.05;;
51836;SDS011;38941;53.254;6.600;2024-02-14T10:11:23;29.70;;;6.78;;
51836;SDS011;38941;53.254;6.600;2024-02-14T10:13:27;13.32;;;5.80;;
51836;SDS011;38941;53.254;6.600;2024-02-14T10:15:28;26.00;;;6.57;;
51836;SDS011;38941;53.254;6.600;2024-02-14T10:17:32;21.17;;;6.55;;
51836;SDS011;38941;53.254;6.600;2024-02-14T10:19:33;19.58;;;5.85;;
51836;SDS011;38941;53.254;6.600;2024-02-14T10:21:34;19.35;;;6.22;;
51836;SDS011;38941;53.254;6.600;2024-02-14T10:23:35;20.65;;;5.57;;
51836;SDS011;38941;53.254;6.600;2024-02-14T10:25:35;31.50;;;7.70;;
51836;SDS011;38941;53.254;6.600;2024-02-14T10:27:37;17.50;;;5.82;;
51836;SDS011;38941;53.254;6.600;2024-02-14T10:29:38;16.55;;;5.45;;
51836;SDS011;38941;53.254;6.600;2024-02-14T10:31:40;17.90;;;5.57;;
51836;SDS011;38941;53.254;6.600;2024-02-14T10:33:41;12.20;;;4.57;;
51836;SDS011;38941;53.254;6.600;2024-02-14T10:35:42;17.73;;;5.18;;
51836;SDS011;38941;53.254;6.600;2024-02-14T10:37:43;11.50;;;4.55;;
51836;SDS011;38941;53.254;6.600;2024-02-14T10:39:46;18.20;;;4.47;;
51836;SDS011;38941;53.254;6.600;2024-02-14T10:41:49;13.25;;;4.00;;
51836;SDS011;38941;53.254;6.600;2024-02-14T10:43:50;12.93;;;4.47;;
51836;SDS011;38941;53.254;6.600;2024-02-14T10:45:52;15.13;;;4.53;;
51836;SDS011;38941;53.254;6.600;2024-02-14T10:47:54;10.38;;;4.45;;
51836;SDS011;38941;53.254;6.600;2024-02-14T10:50:01;15.82;;;4.70;;
51836;SDS011;38941;53.254;6.600;2024-02-14T10:52:05;10.82;;;4.38;;
51836;SDS011;38941;53.254;6.600;2024-02-14T10:54:10;20.40;;;5.22;;
51836;SDS011;38941;53.254;6.600;2024-02-14T10:56:13;17.17;;;5.78;;
51836;SDS011;38941;53.254;6.600;2024-02-14T10:58:21;12.73;;;5.43;;
51836;SDS011;38941;53.254;6.600;2024-02-14T11:00:25;12.50;;;4.50;;
51836;SDS011;38941;53.254;6.600;2024-02-14T11:02:26;12.43;;;4.38;;
51836;SDS011;38941;53.254;6.600;2024-02-14T11:04:30;9.93;;;4.57;;
51836;SDS011;38941;53.254;6.600;2024-02-14T11:06:31;7.90;;;3.15;;
51836;SDS011;38941;53.254;6.600;2024-02-14T11:08:33;7.53;;;3.30;;
51836;SDS011;38941;53.254;6.600;2024-02-14T11:10:37;6.60;;;2.75;;
51836;SDS011;38941;53.254;6.600;2024-02-14T11:12:38;8.00;;;2.65;;
51836;SDS011;38941;53.254;6.600;2024-02-14T11:14:44;5.72;;;2.90;;
51836;SDS011;38941;53.254;6.600;2024-02-14T11:16:45;4.13;;;2.30;;
51836;SDS011;38941;53.254;6.600;2024-02-14T11:18:46;5.32;;;2.40;;
51836;SDS011;38941;53.254;6.600;2024-02-14T11:20:47;7.95;;;2.63;;
51836;SDS011;38941;53.254;6.600;2024-02-14T11:23:01;7.35;;;3.00;;
51836;SDS011;38941;53.254;6.600;2024-02-14T11:25:06;8.40;;;3.03;;
51836;SDS011;38941;53.254;6.600;2024-02-14T11:27:11;5.47;;;2.80;;
51836;SDS011;38941;53.254;6.600;2024-02-14T11:29:13;6.45;;;2.90;;
51836;SDS011;38941;53.254;6.600;2024-02-14T11:31:20;9.70;;;2.88;;
51836;SDS011;38941;53.254;6.600;2024-02-14T11:33:22;6.78;;;2.95;;
51836;SDS011;38941;53.254;6.600;2024-02-14T11:35:26;8.52;;;3.10;;
51836;SDS011;38941;53.254;6.600;2024-02-14T11:37:28;8.70;;;3.40;;
51836;SDS011;38941;53.254;6.600;2024-02-14T11:39:29;7.13;;;3.63;;
51836;SDS011;38941;53.254;6.600;2024-02-14T11:41:34;10.88;;;3.72;;
51836;SDS011;38941;53.254;6.600;2024-02-14T11:43:35;6.00;;;3.58;;
51836;SDS011;38941;53.254;6.600;2024-02-14T11:45:35;5.93;;;3.60;;
51836;SDS011;38941;53.254;6.600;2024-02-14T11:47:39;8.90;;;3.08;;
51836;SDS011;38941;53.254;6.600;2024-02-14T11:49:40;11.43;;;3.80;;
51836;SDS011;38941;53.254;6.600;2024-02-14T11:51:40;12.43;;;3.95;;
51836;SDS011;38941;53.254;6.600;2024-02-14T11:53:43;5.68;;;3.13;;
51836;SDS011;38941;53.254;6.600;2024-02-14T11:55:45;6.93;;;3.45;;
51836;SDS011;38941;53.254;6.600;2024-02-14T11:57:48;8.07;;;3.30;;
51836;SDS011;38941;53.254;6.600;2024-02-14T11:59:52;5.70;;;2.80;;
51836;SDS011;38941;53.254;6.600;2024-02-14T12:01:53;7.50;;;2.95;;
51836;SDS011;38941;53.254;6.600;2024-02-14T12:04:01;7.63;;;2.63;;
51836;SDS011;38941;53.254;6.600;2024-02-14T12:06:03;8.05;;;2.83;;
51836;SDS011;38941;53.254;6.600;2024-02-14T12:08:06;4.47;;;2.30;;